sensor_id;sensor_type;location;lat;lon;timestamp;temperature;humidity
7494;DHT22;3788;49.902;8.590;2022-10-15T00:00:35;15.10;99.90
7494;DHT22;3788;49.902;8.590;2022-10-15T00:03:02;15.00;99.90
7494;DHT22;3788;49.902;8.590;2022-10-15T00:05:29;15.10;99.90
7494;DHT22;3788;49.902;8.590;2022-10-15T00:07:57;15.00;99.90
7494;DHT22;3788;49.902;8.590;2022-10-15T00:10:23;15.10;99.90
7494;DHT22;3788;49.902;8.590;2022-10-15T00:12:50;15.10;99.90
7494;DHT22;3788;49.902;8.590;2022-10-15T00:15:17;15.00;99.90
7494;DHT22;3788;49.902;8.590;2022-10-15T00:17:44;15.10;99.90
7494;DHT22;3788;49.902;8.590;2022-10-15T00:20:11;15.10;99.90
7494;DHT22;3788;49.902;8.590;2022-10-15T00:22:37;15.10;99.90
7494;DHT22;3788;49.902;8.590;2022-10-15T00:25:07;15.10;99.90
7494;DHT22;3788;49.902;8.590;2022-10-15T00:27:34;15.10;99.90
7494;DHT22;3788;49.902;8.590;2022-10-15T00:30:02;15.10;99.90
7494;DHT22;3788;49.902;8.590;2022-10-15T00:32:29;15.10;99.90
7494;DHT22;3788;49.902;8.590;2022-10-15T00:34:56;15.10;99.90
7494;DHT22;3788;49.902;8.590;2022-10-15T00:37:24;15.10;99.90
7494;DHT22;3788;49.902;8.590;2022-10-15T00:39:50;15.10;99.90
7494;DHT22;3788;49.902;8.590;2022-10-15T00:42:18;15.10;99.90
7494;DHT22;3788;49.902;8.590;2022-10-15T00:44:51;15.10;99.90
7494;DHT22;3788;49.902;8.590;2022-10-15T00:47:24;15.10;99.90
7494;DHT22;3788;49.902;8.590;2022-10-15T00:49:58;15.10;99.90
7494;DHT22;3788;49.902;8.590;2022-10-15T00:52:31;15.20;99.90
7494;DHT22;3788;49.902;8.590;2022-10-15T00:55:03;15.10;99.90
7494;DHT22;3788;49.902;8.590;2022-10-15T00:57:32;15.20;99.90
7494;DHT22;3788;49.902;8.590;2022-10-15T01:00:03;15.20;99.90
7494;DHT22;3788;49.902;8.590;2022-10-15T01:02:31;15.20;99.90
7494;DHT22;3788;49.902;8.590;2022-10-15T01:05:01;15.20;99.90
7494;DHT22;3788;49.902;8.590;2022-10-15T01:07:28;15.20;99.90
7494;DHT22;3788;49.902;8.590;2022-10-15T01:09:54;15.20;99.90
7494;DHT22;3788;49.902;8.590;2022-10-15T01:12:27;15.20;99.90
7494;DHT22;3788;49.902;8.590;2022-10-15T01:15:04;15.20;99.90
7494;DHT22;3788;49.902;8.590;2022-10-15T01:17:41;15.20;99.90
7494;DHT22;3788;49.902;8.590;2022-10-15T01:20:26;15.20;99.90
7494;DHT22;3788;49.902;8.590;2022-10-15T01:23:13;15.20;99.90
7494;DHT22;3788;49.902;8.590;2022-10-15T01:25:51;15.20;99.90
7494;DHT22;3788;49.902;8.590;2022-10-15T01:28:26;15.20;99.90
7494;DHT22;3788;49.902;8.590;2022-10-15T01:31:01;15.20;99.90
7494;DHT22;3788;49.902;8.590;2022-10-15T01:33:36;15.30;99.90
7494;DHT22;3788;49.902;8.590;2022-10-15T01:36:13;15.30;99.90
7494;DHT22;3788;49.902;8.590;2022-10-15T01:38:50;15.30;99.90
7494;DHT22;3788;49.902;8.590;2022-10-15T01:41:26;15.30;99.90
7494;DHT22;3788;49.902;8.590;2022-10-15T01:43:58;15.30;99.90
7494;DHT22;3788;49.902;8.590;2022-10-15T01:46:31;15.30;99.90
7494;DHT22;3788;49.902;8.590;2022-10-15T01:49:00;15.30;99.90
7494;DHT22;3788;49.902;8.590;2022-10-15T01:51:29;15.30;99.90
7494;DHT22;3788;49.902;8.590;2022-10-15T01:53:57;15.30;99.90
7494;DHT22;3788;49.902;8.590;2022-10-15T01:56:25;15.30;99.90
7494;DHT22;3788;49.902;8.590;2022-10-15T01:58:57;15.30;99.90
7494;DHT22;3788;49.902;8.590;2022-10-15T02:01:24;15.30;99.90
7494;DHT22;3788;49.902;8.590;2022-10-15T02:03:52;15.30;99.90
7494;DHT22;3788;49.902;8.590;2022-10-15T02:06:22;15.30;99.90
7494;DHT22;3788;49.902;8.590;2022-10-15T02:09:04;15.30;99.90
7494;DHT22;3788;49.902;8.590;2022-10-15T02:11:41;15.30;99.90
7494;DHT22;3788;49.902;8.590;2022-10-15T02:14:15;15.30;99.90
7494;DHT22;3788;49.902;8.590;2022-10-15T02:16:48;15.30;99.90
7494;DHT22;3788;49.902;8.590;2022-10-15T02:19:24;15.30;99.90
7494;DHT22;3788;49.902;8.590;2022-10-15T02:21:56;15.30;99.90
7494;DHT22;3788;49.902;8.590;2022-10-15T02:24:28;15.30;99.90
7494;DHT22;3788;49.902;8.590;2022-10-15T02:26:59;15.30;99.90
7494;DHT22;3788;49.902;8.590;2022-10-15T02:29:31;15.30;99.90
7494;DHT22;3788;49.902;8.590;2022-10-15T02:32:00;15.30;99.90
7494;DHT22;3788;49.902;8.590;2022-10-15T02:34:30;15.30;99.90
7494;DHT22;3788;49.902;8.590;2022-10-15T02:37:01;15.30;99.90
7494;DHT22;3788;49.902;8.590;2022-10-15T02:39:28;15.30;99.90
7494;DHT22;3788;49.902;8.590;2022-10-15T02:41:56;15.30;99.90
7494;DHT22;3788;49.902;8.590;2022-10-15T02:44:23;15.30;99.90
7494;DHT22;3788;49.902;8.590;2022-10-15T02:46:49;15.30;99.90
7494;DHT22;3788;49.902;8.590;2022-10-15T02:49:16;15.30;99.90
7494;DHT22;3788;49.902;8.590;2022-10-15T02:51:44;15.30;99.90
7494;DHT22;3788;49.902;8.590;2022-10-15T02:54:11;15.30;99.90
7494;DHT22;3788;49.902;8.590;2022-10-15T02:56:37;15.30;99.90
7494;DHT22;3788;49.902;8.590;2022-10-15T02:59:04;15.30;99.90
7494;DHT22;3788;49.902;8.590;2022-10-15T03:01:31;15.30;99.90
7494;DHT22;3788;49.902;8.590;2022-10-15T03:03:58;15.30;99.90
7494;DHT22;3788;49.902;8.590;2022-10-15T03:06:27;15.30;99.90
7494;DHT22;3788;49.902;8.590;2022-10-15T03:08:55;15.30;99.90
7494;DHT22;3788;49.902;8.590;2022-10-15T03:11:22;15.30;99.90
7494;DHT22;3788;49.902;8.590;2022-10-15T03:13:49;15.30;99.90
7494;DHT22;3788;49.902;8.590;2022-10-15T03:16:15;15.40;99.90
7494;DHT22;3788;49.902;8.590;2022-10-15T03:18:42;15.40;99.90
7494;DHT22;3788;49.902;8.590;2022-10-15T03:21:09;15.40;99.90
7494;DHT22;3788;49.902;8.590;2022-10-15T03:23:36;15.40;99.90
7494;DHT22;3788;49.902;8.590;2022-10-15T03:26:04;15.40;99.90
7494;DHT22;3788;49.902;8.590;2022-10-15T03:28:30;15.40;99.90
7494;DHT22;3788;49.902;8.590;2022-10-15T03:30:57;15.40;99.90
7494;DHT22;3788;49.902;8.590;2022-10-15T03:33:24;15.40;99.90
7494;DHT22;3788;49.902;8.590;2022-10-15T03:35:51;15.40;99.90
7494;DHT22;3788;49.902;8.590;2022-10-15T03:38:18;15.40;99.90
7494;DHT22;3788;49.902;8.590;2022-10-15T03:40:45;15.40;99.90
7494;DHT22;3788;49.902;8.590;2022-10-15T03:43:13;15.40;99.90
7494;DHT22;3788;49.902;8.590;2022-10-15T03:45:40;15.50;99.90
7494;DHT22;3788;49.902;8.590;2022-10-15T03:48:07;15.40;99.90
7494;DHT22;3788;49.902;8.590;2022-10-15T03:50:33;15.40;99.90
7494;DHT22;3788;49.902;8.590;2022-10-15T03:53:02;15.50;99.90
7494;DHT22;3788;49.902;8.590;2022-10-15T03:55:28;15.40;99.90
7494;DHT22;3788;49.902;8.590;2022-10-15T03:57:55;15.40;99.90
7494;DHT22;3788;49.902;8.590;2022-10-15T04:00:23;15.50;99.90
7494;DHT22;3788;49.902;8.590;2022-10-15T04:02:51;15.50;99.90
7494;DHT22;3788;49.902;8.590;2022-10-15T04:05:18;15.40;99.90
7494;DHT22;3788;49.902;8.590;2022-10-15T04:07:44;15.50;99.90
7494;DHT22;3788;49.902;8.590;2022-10-15T04:10:11;15.50;99.90
7494;DHT22;3788;49.902;8.590;2022-10-15T04:12:38;15.50;99.90
7494;DHT22;3788;49.902;8.590;2022-10-15T04:15:06;15.50;99.90
7494;DHT22;3788;49.902;8.590;2022-10-15T04:17:34;15.50;99.90
7494;DHT22;3788;49.902;8.590;2022-10-15T04:20:01;15.50;99.90
7494;DHT22;3788;49.902;8.590;2022-10-15T04:22:29;15.50;99.90
7494;DHT22;3788;49.902;8.590;2022-10-15T04:24:56;15.50;99.90
7494;DHT22;3788;49.902;8.590;2022-10-15T04:27:22;15.50;99.90
7494;DHT22;3788;49.902;8.590;2022-10-15T04:29:49;15.50;99.90
7494;DHT22;3788;49.902;8.590;2022-10-15T04:32:16;15.40;99.90
7494;DHT22;3788;49.902;8.590;2022-10-15T04:34:45;15.50;99.90
7494;DHT22;3788;49.902;8.590;2022-10-15T04:37:12;15.50;99.90
7494;DHT22;3788;49.902;8.590;2022-10-15T04:39:39;15.50;99.90
7494;DHT22;3788;49.902;8.590;2022-10-15T04:42:05;15.50;99.90
7494;DHT22;3788;49.902;8.590;2022-10-15T04:44:32;15.50;99.90
7494;DHT22;3788;49.902;8.590;2022-10-15T04:47:00;15.50;99.90
7494;DHT22;3788;49.902;8.590;2022-10-15T04:49:26;15.50;99.90
7494;DHT22;3788;49.902;8.590;2022-10-15T04:51:55;15.50;99.90
7494;DHT22;3788;49.902;8.590;2022-10-15T04:54:21;15.50;99.90
7494;DHT22;3788;49.902;8.590;2022-10-15T04:56:48;15.50;99.90
7494;DHT22;3788;49.902;8.590;2022-10-15T04:59:15;15.40;99.90
7494;DHT22;3788;49.902;8.590;2022-10-15T05:01:42;15.50;99.90
7494;DHT22;3788;49.902;8.590;2022-10-15T05:04:09;15.50;99.90
7494;DHT22;3788;49.902;8.590;2022-10-15T05:06:36;15.50;99.90
7494;DHT22;3788;49.902;8.590;2022-10-15T05:09:04;15.50;99.90
7494;DHT22;3788;49.902;8.590;2022-10-15T05:11:34;15.50;99.90
7494;DHT22;3788;49.902;8.590;2022-10-15T05:14:01;15.40;99.90
7494;DHT22;3788;49.902;8.590;2022-10-15T05:16:29;15.40;99.90
7494;DHT22;3788;49.902;8.590;2022-10-15T05:18:58;15.40;99.90
7494;DHT22;3788;49.902;8.590;2022-10-15T05:21:25;15.40;99.90
7494;DHT22;3788;49.902;8.590;2022-10-15T05:23:52;15.40;99.90
7494;DHT22;3788;49.902;8.590;2022-10-15T05:26:22;15.40;99.90
7494;DHT22;3788;49.902;8.590;2022-10-15T05:28:49;15.40;99.90
7494;DHT22;3788;49.902;8.590;2022-10-15T05:31:18;15.40;99.90
7494;DHT22;3788;49.902;8.590;2022-10-15T05:33:45;15.40;99.90
7494;DHT22;3788;49.902;8.590;2022-10-15T05:36:14;15.40;99.90
7494;DHT22;3788;49.902;8.590;2022-10-15T05:38:42;15.40;99.90
7494;DHT22;3788;49.902;8.590;2022-10-15T05:41:08;15.40;99.90
7494;DHT22;3788;49.902;8.590;2022-10-15T05:43:37;15.30;99.90
7494;DHT22;3788;49.902;8.590;2022-10-15T05:46:04;15.30;99.90
7494;DHT22;3788;49.902;8.590;2022-10-15T05:48:31;15.30;99.90
7494;DHT22;3788;49.902;8.590;2022-10-15T05:51:01;15.30;99.90
7494;DHT22;3788;49.902;8.590;2022-10-15T05:53:28;15.30;99.90
7494;DHT22;3788;49.902;8.590;2022-10-15T05:55:55;15.30;99.90
7494;DHT22;3788;49.902;8.590;2022-10-15T05:58:23;15.30;99.90
7494;DHT22;3788;49.902;8.590;2022-10-15T06:00:53;15.30;99.90
7494;DHT22;3788;49.902;8.590;2022-10-15T06:03:20;15.30;99.90
7494;DHT22;3788;49.902;8.590;2022-10-15T06:05:47;15.30;99.90
7494;DHT22;3788;49.902;8.590;2022-10-15T06:08:14;15.30;99.90
7494;DHT22;3788;49.902;8.590;2022-10-15T06:10:41;15.30;99.90
7494;DHT22;3788;49.902;8.590;2022-10-15T06:13:08;15.40;99.90
7494;DHT22;3788;49.902;8.590;2022-10-15T06:15:38;15.30;99.90
7494;DHT22;3788;49.902;8.590;2022-10-15T06:18:07;15.30;99.90
7494;DHT22;3788;49.902;8.590;2022-10-15T06:20:34;15.30;99.90
7494;DHT22;3788;49.902;8.590;2022-10-15T06:23:03;15.40;99.90
7494;DHT22;3788;49.902;8.590;2022-10-15T06:25:31;15.30;99.90
7494;DHT22;3788;49.902;8.590;2022-10-15T06:28:00;15.40;99.90
7494;DHT22;3788;49.902;8.590;2022-10-15T06:30:26;15.40;99.90
7494;DHT22;3788;49.902;8.590;2022-10-15T06:32:53;15.30;99.90
7494;DHT22;3788;49.902;8.590;2022-10-15T06:35:22;15.30;99.90
7494;DHT22;3788;49.902;8.590;2022-10-15T06:37:49;15.30;99.90
7494;DHT22;3788;49.902;8.590;2022-10-15T06:40:16;15.30;99.90
7494;DHT22;3788;49.902;8.590;2022-10-15T06:42:43;15.30;99.90
7494;DHT22;3788;49.902;8.590;2022-10-15T06:45:10;15.30;99.90
7494;DHT22;3788;49.902;8.590;2022-10-15T06:47:38;15.40;99.90
7494;DHT22;3788;49.902;8.590;2022-10-15T06:50:06;15.40;99.90
7494;DHT22;3788;49.902;8.590;2022-10-15T06:52:34;15.40;99.90
7494;DHT22;3788;49.902;8.590;2022-10-15T06:55:01;15.40;99.90
7494;DHT22;3788;49.902;8.590;2022-10-15T06:57:27;15.40;99.90
7494;DHT22;3788;49.902;8.590;2022-10-15T06:59:54;15.40;99.90
7494;DHT22;3788;49.902;8.590;2022-10-15T07:02:21;15.40;99.90
7494;DHT22;3788;49.902;8.590;2022-10-15T07:04:49;15.40;99.90
7494;DHT22;3788;49.902;8.590;2022-10-15T07:07:15;15.40;99.90
7494;DHT22;3788;49.902;8.590;2022-10-15T07:09:43;15.40;99.90
7494;DHT22;3788;49.902;8.590;2022-10-15T07:12:12;15.50;99.90
7494;DHT22;3788;49.902;8.590;2022-10-15T07:14:38;15.50;99.90
7494;DHT22;3788;49.902;8.590;2022-10-15T07:17:05;15.50;99.90
7494;DHT22;3788;49.902;8.590;2022-10-15T07:19:33;15.50;99.90
7494;DHT22;3788;49.902;8.590;2022-10-15T07:22:00;15.50;99.90
7494;DHT22;3788;49.902;8.590;2022-10-15T07:24:27;15.60;99.90
7494;DHT22;3788;49.902;8.590;2022-10-15T07:26:55;15.60;99.90
7494;DHT22;3788;49.902;8.590;2022-10-15T07:29:22;15.60;99.90
7494;DHT22;3788;49.902;8.590;2022-10-15T07:31:49;15.70;99.90
7494;DHT22;3788;49.902;8.590;2022-10-15T07:34:16;15.70;99.90
7494;DHT22;3788;49.902;8.590;2022-10-15T07:36:43;15.80;99.90
7494;DHT22;3788;49.902;8.590;2022-10-15T07:39:10;15.80;99.90
7494;DHT22;3788;49.902;8.590;2022-10-15T07:41:37;15.80;99.90
7494;DHT22;3788;49.902;8.590;2022-10-15T07:44:05;15.90;99.90
7494;DHT22;3788;49.902;8.590;2022-10-15T07:46:32;15.90;99.90
7494;DHT22;3788;49.902;8.590;2022-10-15T07:48:59;16.00;99.90
7494;DHT22;3788;49.902;8.590;2022-10-15T07:51:26;16.00;99.90
7494;DHT22;3788;49.902;8.590;2022-10-15T07:53:52;16.10;99.90
7494;DHT22;3788;49.902;8.590;2022-10-15T07:56:19;16.10;99.90
7494;DHT22;3788;49.902;8.590;2022-10-15T07:58:46;16.20;99.90
7494;DHT22;3788;49.902;8.590;2022-10-15T08:01:19;16.20;99.90
7494;DHT22;3788;49.902;8.590;2022-10-15T08:03:46;16.20;99.90
7494;DHT22;3788;49.902;8.590;2022-10-15T08:06:13;16.20;99.90
7494;DHT22;3788;49.902;8.590;2022-10-15T08:08:40;16.20;99.90
7494;DHT22;3788;49.902;8.590;2022-10-15T08:11:08;16.20;99.90
7494;DHT22;3788;49.902;8.590;2022-10-15T08:13:36;16.30;99.90
7494;DHT22;3788;49.902;8.590;2022-10-15T08:16:06;16.50;99.90
7494;DHT22;3788;49.902;8.590;2022-10-15T08:18:34;16.60;99.90
7494;DHT22;3788;49.902;8.590;2022-10-15T08:21:03;16.70;99.90
7494;DHT22;3788;49.902;8.590;2022-10-15T08:23:31;16.70;99.90
7494;DHT22;3788;49.902;8.590;2022-10-15T08:25:57;16.80;99.90
7494;DHT22;3788;49.902;8.590;2022-10-15T08:28:25;16.80;99.90
7494;DHT22;3788;49.902;8.590;2022-10-15T08:30:52;16.80;99.90
7494;DHT22;3788;49.902;8.590;2022-10-15T08:33:20;16.90;99.90
7494;DHT22;3788;49.902;8.590;2022-10-15T08:35:48;16.90;99.90
7494;DHT22;3788;49.902;8.590;2022-10-15T08:38:14;17.00;99.90
7494;DHT22;3788;49.902;8.590;2022-10-15T08:40:46;17.00;99.90
7494;DHT22;3788;49.902;8.590;2022-10-15T08:43:17;17.10;99.90
7494;DHT22;3788;49.902;8.590;2022-10-15T08:45:45;17.10;99.90
7494;DHT22;3788;49.902;8.590;2022-10-15T08:48:17;17.20;99.90
7494;DHT22;3788;49.902;8.590;2022-10-15T08:50:53;17.20;99.90
7494;DHT22;3788;49.902;8.590;2022-10-15T08:53:23;17.20;99.90
7494;DHT22;3788;49.902;8.590;2022-10-15T08:55:55;17.20;99.90
7494;DHT22;3788;49.902;8.590;2022-10-15T08:58:40;17.10;99.90
7494;DHT22;3788;49.902;8.590;2022-10-15T09:01:13;17.10;99.90
7494;DHT22;3788;49.902;8.590;2022-10-15T09:03:50;17.10;99.90
7494;DHT22;3788;49.902;8.590;2022-10-15T09:06:23;17.10;99.90
7494;DHT22;3788;49.902;8.590;2022-10-15T09:08:58;17.10;99.90
7494;DHT22;3788;49.902;8.590;2022-10-15T09:11:35;17.10;99.90
7494;DHT22;3788;49.902;8.590;2022-10-15T09:14:08;17.10;99.90
7494;DHT22;3788;49.902;8.590;2022-10-15T09:16:37;17.10;99.90
7494;DHT22;3788;49.902;8.590;2022-10-15T09:19:11;17.10;99.90
7494;DHT22;3788;49.902;8.590;2022-10-15T09:21:41;17.10;99.90
7494;DHT22;3788;49.902;8.590;2022-10-15T09:24:10;17.10;99.90
7494;DHT22;3788;49.902;8.590;2022-10-15T09:26:47;17.10;99.90
7494;DHT22;3788;49.902;8.590;2022-10-15T09:29:20;17.00;99.90
7494;DHT22;3788;49.902;8.590;2022-10-15T09:31:53;17.00;99.90
7494;DHT22;3788;49.902;8.590;2022-10-15T09:34:26;17.10;99.90
7494;DHT22;3788;49.902;8.590;2022-10-15T09:36:59;17.10;99.90
7494;DHT22;3788;49.902;8.590;2022-10-15T09:39:37;17.10;99.90
7494;DHT22;3788;49.902;8.590;2022-10-15T09:42:18;17.10;99.90
7494;DHT22;3788;49.902;8.590;2022-10-15T09:44:47;17.20;99.90
7494;DHT22;3788;49.902;8.590;2022-10-15T09:47:19;17.20;99.90
7494;DHT22;3788;49.902;8.590;2022-10-15T09:49:48;17.30;99.90
7494;DHT22;3788;49.902;8.590;2022-10-15T09:52:20;17.30;99.90
7494;DHT22;3788;49.902;8.590;2022-10-15T09:54:58;17.40;99.90
7494;DHT22;3788;49.902;8.590;2022-10-15T09:57:29;17.60;99.90
7494;DHT22;3788;49.902;8.590;2022-10-15T09:59:58;17.60;99.90
7494;DHT22;3788;49.902;8.590;2022-10-15T10:02:27;17.70;99.90
7494;DHT22;3788;49.902;8.590;2022-10-15T10:04:54;17.70;99.90
7494;DHT22;3788;49.902;8.590;2022-10-15T10:07:30;17.70;99.90
7494;DHT22;3788;49.902;8.590;2022-10-15T10:10:00;17.60;99.90
7494;DHT22;3788;49.902;8.590;2022-10-15T10:12:31;17.60;99.90
7494;DHT22;3788;49.902;8.590;2022-10-15T10:14:59;17.50;99.90
7494;DHT22;3788;49.902;8.590;2022-10-15T10:17:28;17.50;99.90
7494;DHT22;3788;49.902;8.590;2022-10-15T10:20:16;17.40;99.90
7494;DHT22;3788;49.902;8.590;2022-10-15T10:22:46;17.40;99.90
7494;DHT22;3788;49.902;8.590;2022-10-15T10:25:28;17.40;99.90
7494;DHT22;3788;49.902;8.590;2022-10-15T10:27:57;17.30;99.90
7494;DHT22;3788;49.902;8.590;2022-10-15T10:30:24;17.30;99.90
7494;DHT22;3788;49.902;8.590;2022-10-15T10:32:56;17.30;99.90
7494;DHT22;3788;49.902;8.590;2022-10-15T10:35:26;17.30;99.90
7494;DHT22;3788;49.902;8.590;2022-10-15T10:37:56;17.30;99.90
7494;DHT22;3788;49.902;8.590;2022-10-15T10:40:26;17.20;99.90
7494;DHT22;3788;49.902;8.590;2022-10-15T10:43:09;17.20;99.90
7494;DHT22;3788;49.902;8.590;2022-10-15T10:45:37;17.20;99.90
7494;DHT22;3788;49.902;8.590;2022-10-15T10:48:17;17.20;99.90
7494;DHT22;3788;49.902;8.590;2022-10-15T10:50:44;17.20;99.90
7494;DHT22;3788;49.902;8.590;2022-10-15T10:53:23;17.20;99.90
7494;DHT22;3788;49.902;8.590;2022-10-15T10:55:51;17.20;99.90
7494;DHT22;3788;49.902;8.590;2022-10-15T10:58:22;17.20;99.90
7494;DHT22;3788;49.902;8.590;2022-10-15T11:00:51;17.20;99.90
7494;DHT22;3788;49.902;8.590;2022-10-15T11:03:39;17.30;99.90
7494;DHT22;3788;49.902;8.590;2022-10-15T11:06:25;17.40;99.90
7494;DHT22;3788;49.902;8.590;2022-10-15T11:09:09;17.40;99.90
7494;DHT22;3788;49.902;8.590;2022-10-15T11:11:48;17.50;99.90
7494;DHT22;3788;49.902;8.590;2022-10-15T11:14:23;17.60;99.90
7494;DHT22;3788;49.902;8.590;2022-10-15T11:16:59;17.70;99.90
7494;DHT22;3788;49.902;8.590;2022-10-15T11:19:34;17.70;99.90
7494;DHT22;3788;49.902;8.590;2022-10-15T11:22:14;17.90;99.90
7494;DHT22;3788;49.902;8.590;2022-10-15T11:24:50;17.90;99.90
7494;DHT22;3788;49.902;8.590;2022-10-15T11:27:40;18.00;99.90
7494;DHT22;3788;49.902;8.590;2022-10-15T11:30:18;18.00;99.90
7494;DHT22;3788;49.902;8.590;2022-10-15T11:32:57;18.00;99.90
7494;DHT22;3788;49.902;8.590;2022-10-15T11:35:38;18.10;99.90
7494;DHT22;3788;49.902;8.590;2022-10-15T11:38:15;18.00;99.90
7494;DHT22;3788;49.902;8.590;2022-10-15T11:40:52;17.90;99.90
7494;DHT22;3788;49.902;8.590;2022-10-15T11:43:32;17.90;99.90
7494;DHT22;3788;49.902;8.590;2022-10-15T11:46:06;17.90;99.90
7494;DHT22;3788;49.902;8.590;2022-10-15T11:48:47;17.90;99.90
7494;DHT22;3788;49.902;8.590;2022-10-15T11:51:22;17.80;99.90
7494;DHT22;3788;49.902;8.590;2022-10-15T11:54:12;17.80;99.90
7494;DHT22;3788;49.902;8.590;2022-10-15T11:56:45;17.90;99.90
7494;DHT22;3788;49.902;8.590;2022-10-15T11:59:20;17.90;99.90
7494;DHT22;3788;49.902;8.590;2022-10-15T12:01:53;17.90;99.90
7494;DHT22;3788;49.902;8.590;2022-10-15T12:04:26;17.90;99.90
7494;DHT22;3788;49.902;8.590;2022-10-15T12:06:56;17.90;99.90
7494;DHT22;3788;49.902;8.590;2022-10-15T12:09:25;17.90;99.90
7494;DHT22;3788;49.902;8.590;2022-10-15T12:12:01;17.90;99.90
7494;DHT22;3788;49.902;8.590;2022-10-15T12:14:33;17.90;99.90
7494;DHT22;3788;49.902;8.590;2022-10-15T12:17:07;17.80;99.90
7494;DHT22;3788;49.902;8.590;2022-10-15T12:19:40;17.80;99.90
7494;DHT22;3788;49.902;8.590;2022-10-15T12:22:11;17.80;99.90
7494;DHT22;3788;49.902;8.590;2022-10-15T12:24:52;17.70;99.90
7494;DHT22;3788;49.902;8.590;2022-10-15T12:27:24;17.80;99.90
7494;DHT22;3788;49.902;8.590;2022-10-15T12:30:12;17.70;99.90
7494;DHT22;3788;49.902;8.590;2022-10-15T12:32:42;17.80;99.90
7494;DHT22;3788;49.902;8.590;2022-10-15T12:35:20;17.80;99.90
7494;DHT22;3788;49.902;8.590;2022-10-15T12:37:48;17.90;99.90
7494;DHT22;3788;49.902;8.590;2022-10-15T12:40:26;17.90;99.90
7494;DHT22;3788;49.902;8.590;2022-10-15T12:42:56;17.90;99.90
7494;DHT22;3788;49.902;8.590;2022-10-15T12:45:29;18.00;99.90
7494;DHT22;3788;49.902;8.590;2022-10-15T12:48:17;18.00;99.90
7494;DHT22;3788;49.902;8.590;2022-10-15T12:50:44;18.00;99.90
7494;DHT22;3788;49.902;8.590;2022-10-15T12:53:29;18.00;99.90
7494;DHT22;3788;49.902;8.590;2022-10-15T12:56:12;18.00;99.90
7494;DHT22;3788;49.902;8.590;2022-10-15T12:58:48;18.00;99.90
7494;DHT22;3788;49.902;8.590;2022-10-15T13:01:29;18.00;99.90
7494;DHT22;3788;49.902;8.590;2022-10-15T13:04:15;18.00;99.90
7494;DHT22;3788;49.902;8.590;2022-10-15T13:06:42;17.90;99.90
7494;DHT22;3788;49.902;8.590;2022-10-15T13:09:28;17.90;99.90
7494;DHT22;3788;49.902;8.590;2022-10-15T13:11:56;18.00;99.90
7494;DHT22;3788;49.902;8.590;2022-10-15T13:14:29;18.00;99.90
7494;DHT22;3788;49.902;8.590;2022-10-15T13:16:57;17.90;99.90
7494;DHT22;3788;49.902;8.590;2022-10-15T13:19:27;17.90;99.90
7494;DHT22;3788;49.902;8.590;2022-10-15T13:21:56;17.90;99.90
7494;DHT22;3788;49.902;8.590;2022-10-15T13:24:26;17.90;99.90
7494;DHT22;3788;49.902;8.590;2022-10-15T13:26:55;17.90;99.90
7494;DHT22;3788;49.902;8.590;2022-10-15T13:29:24;18.00;99.90
7494;DHT22;3788;49.902;8.590;2022-10-15T13:31:54;18.00;99.90
7494;DHT22;3788;49.902;8.590;2022-10-15T13:34:26;18.00;99.90
7494;DHT22;3788;49.902;8.590;2022-10-15T13:36:56;18.00;99.90
7494;DHT22;3788;49.902;8.590;2022-10-15T13:39:28;18.00;99.90
7494;DHT22;3788;49.902;8.590;2022-10-15T13:42:06;17.90;99.90
7494;DHT22;3788;49.902;8.590;2022-10-15T13:44:33;17.90;99.90
7494;DHT22;3788;49.902;8.590;2022-10-15T13:47:02;17.90;99.90
7494;DHT22;3788;49.902;8.590;2022-10-15T13:49:29;17.90;99.90
7494;DHT22;3788;49.902;8.590;2022-10-15T13:51:56;17.90;99.90
7494;DHT22;3788;49.902;8.590;2022-10-15T13:54:24;17.90;99.90
7494;DHT22;3788;49.902;8.590;2022-10-15T13:56:54;17.90;99.90
7494;DHT22;3788;49.902;8.590;2022-10-15T13:59:22;17.90;99.90
7494;DHT22;3788;49.902;8.590;2022-10-15T14:01:52;17.90;99.90
7494;DHT22;3788;49.902;8.590;2022-10-15T14:04:22;17.90;99.90
7494;DHT22;3788;49.902;8.590;2022-10-15T14:06:54;17.90;99.90
7494;DHT22;3788;49.902;8.590;2022-10-15T14:09:28;17.90;99.90
7494;DHT22;3788;49.902;8.590;2022-10-15T14:11:55;17.90;99.90
7494;DHT22;3788;49.902;8.590;2022-10-15T14:14:27;17.80;99.90
7494;DHT22;3788;49.902;8.590;2022-10-15T14:16:55;17.90;99.90
7494;DHT22;3788;49.902;8.590;2022-10-15T14:19:24;17.90;99.90
7494;DHT22;3788;49.902;8.590;2022-10-15T14:21:55;17.80;99.90
7494;DHT22;3788;49.902;8.590;2022-10-15T14:24:25;17.90;99.90
7494;DHT22;3788;49.902;8.590;2022-10-15T14:26:53;17.80;99.90
7494;DHT22;3788;49.902;8.590;2022-10-15T14:29:24;17.80;99.90
7494;DHT22;3788;49.902;8.590;2022-10-15T14:31:51;17.80;99.90
7494;DHT22;3788;49.902;8.590;2022-10-15T14:34:30;17.80;99.90
7494;DHT22;3788;49.902;8.590;2022-10-15T14:37:00;17.80;99.90
7494;DHT22;3788;49.902;8.590;2022-10-15T14:39:30;17.80;99.90
7494;DHT22;3788;49.902;8.590;2022-10-15T14:41:58;17.70;99.90
7494;DHT22;3788;49.902;8.590;2022-10-15T14:44:25;17.70;99.90
7494;DHT22;3788;49.902;8.590;2022-10-15T14:47:00;17.70;99.90
7494;DHT22;3788;49.902;8.590;2022-10-15T14:49:31;17.80;99.90
7494;DHT22;3788;49.902;8.590;2022-10-15T14:52:02;17.80;99.90
7494;DHT22;3788;49.902;8.590;2022-10-15T14:54:34;17.90;99.90
7494;DHT22;3788;49.902;8.590;2022-10-15T14:57:02;17.90;99.90
7494;DHT22;3788;49.902;8.590;2022-10-15T14:59:33;17.90;99.90
7494;DHT22;3788;49.902;8.590;2022-10-15T15:02:01;18.00;99.90
7494;DHT22;3788;49.902;8.590;2022-10-15T15:04:39;18.00;99.90
7494;DHT22;3788;49.902;8.590;2022-10-15T15:07:15;18.00;99.90
7494;DHT22;3788;49.902;8.590;2022-10-15T15:09:42;18.00;99.90
7494;DHT22;3788;49.902;8.590;2022-10-15T15:12:16;18.00;99.90
7494;DHT22;3788;49.902;8.590;2022-10-15T15:14:44;18.00;99.90
7494;DHT22;3788;49.902;8.590;2022-10-15T15:17:14;17.90;99.90
7494;DHT22;3788;49.902;8.590;2022-10-15T15:19:43;17.90;99.90
7494;DHT22;3788;49.902;8.590;2022-10-15T15:22:11;17.90;99.90
7494;DHT22;3788;49.902;8.590;2022-10-15T15:24:38;17.90;99.90
7494;DHT22;3788;49.902;8.590;2022-10-15T15:27:05;17.90;99.90
7494;DHT22;3788;49.902;8.590;2022-10-15T15:29:32;17.80;99.90
7494;DHT22;3788;49.902;8.590;2022-10-15T15:31:59;17.80;99.90
7494;DHT22;3788;49.902;8.590;2022-10-15T15:34:25;17.80;99.90
7494;DHT22;3788;49.902;8.590;2022-10-15T15:36:53;17.80;99.90
7494;DHT22;3788;49.902;8.590;2022-10-15T15:39:20;17.70;99.90
7494;DHT22;3788;49.902;8.590;2022-10-15T15:41:47;17.70;99.90
7494;DHT22;3788;49.902;8.590;2022-10-15T15:44:14;17.70;99.90
7494;DHT22;3788;49.902;8.590;2022-10-15T15:46:41;17.70;99.90
7494;DHT22;3788;49.902;8.590;2022-10-15T15:49:07;17.70;99.90
7494;DHT22;3788;49.902;8.590;2022-10-15T15:51:35;17.60;99.90
7494;DHT22;3788;49.902;8.590;2022-10-15T15:54:03;17.60;99.90
7494;DHT22;3788;49.902;8.590;2022-10-15T15:56:32;17.60;99.90
7494;DHT22;3788;49.902;8.590;2022-10-15T15:58:59;17.60;99.90
7494;DHT22;3788;49.902;8.590;2022-10-15T16:01:26;17.60;99.90
7494;DHT22;3788;49.902;8.590;2022-10-15T16:03:53;17.60;99.90
7494;DHT22;3788;49.902;8.590;2022-10-15T16:06:20;17.50;99.90
7494;DHT22;3788;49.902;8.590;2022-10-15T16:08:46;17.50;99.90
7494;DHT22;3788;49.902;8.590;2022-10-15T16:11:17;17.40;99.90
7494;DHT22;3788;49.902;8.590;2022-10-15T16:13:44;17.40;99.90
7494;DHT22;3788;49.902;8.590;2022-10-15T16:16:10;17.40;99.90
7494;DHT22;3788;49.902;8.590;2022-10-15T16:18:37;17.30;99.90
7494;DHT22;3788;49.902;8.590;2022-10-15T16:21:04;17.30;99.90